Bodega Marine Reserve, California Weather observations

Data are for 10 minute period ending at time listed.
 Day   Time   Solar   Ave.   Ave.  Ave.  Vector  Max.   Baro.   Total    
  of    of     Rad.   Air    Rel.  Wind   Wind   Wind  Press.  Precip.   
Year   Day            Temp.  Hum.  Speed  Dir.   Gust                    
2014   (PST)  Kw/m2    F      %     mph   deg.    mph    mb.     in.     
-------------------------------------------------------------------------
 108    1:10   0.01   49.3    92   10.7   328    16.8   1008.8    0.00 
 108    1:20   0.01   49.6    91   12.3   320    17.2   1008.8    0.00 
 108    1:30   0.01   49.6    90   12.2   319    18.6   1008.8    0.00 
 108    1:40   0.01   49.6    90   12.7   322    16.6   1008.8    0.00 
 108    1:50   0.01   49.7    90   13.6   322    18.5   1008.8    0.00 
 108    2:00   0.01   49.6    90   11.1   327    16.8   1008.8    0.00 
 108    2:10   0.01   49.6    90   12.6   322    16.8   1009.1    0.00 
 108    2:20   0.01   49.6    90   14.6   322    20.2   1008.8    0.00 
 108    2:30   0.01   49.6    90   14.1   318    19.3   1008.8    0.00 
 108    2:40   0.01   49.5    91   12.8   321    17.3   1009.1    0.00 
 108    2:50   0.01   49.5    91   13.4   317    19.1   1008.8    0.00 
 108    3:00   0.01   49.5    91   13.8   319    18.9   1008.8    0.00 
 108    3:10   0.01   49.4    91   14.1   316    19.3   1008.8    0.00 
 108    3:20   0.01   49.4    91   14.4   315    19.4   1008.8    0.00 
 108    3:30   0.01   49.3    91   15.0   311    18.9   1008.8    0.00 
 108    3:40   0.01   49.2    92   14.6   314    19.0   1008.8    0.00 
 108    3:50   0.01   49.1    92   13.9   313    18.9   1008.8    0.00 
 108    4:00   0.01   49.1    92   14.4   311    19.0   1008.8    0.00 
 108    4:10   0.01   48.9    92   14.0   309    18.3   1008.8    0.00 
 108    4:20   0.01   48.8    93   14.1   309    19.5   1008.8    0.00 
 108    4:30   0.01   48.9    93   14.6   308    18.9   1008.8    0.00 
 108    4:40   0.01   48.8    93   13.9   309    19.6   1008.8    0.00 
 108    4:50   0.01   48.7    93   13.3   310    18.0   1008.8    0.00 
 108    5:00   0.01   48.7    93   14.0   308    18.6   1009.1    0.00 
 108    5:10   0.01   48.6    93   14.2   309    18.2   1009.1    0.00 
 108    5:20   0.01   48.6    94   13.7   306    18.6   1009.1    0.00 
 108    5:30   0.01   48.5    94   13.3   308    18.6   1009.1    0.00 
 108    5:40   0.02   48.5    94   13.7   306    17.2   1009.1    0.00 
 108    5:50   0.03   48.5    94   10.2   308    15.6   1009.5    0.00 
 108    6:00   0.05   48.4    93    5.7   304    10.9   1009.5    0.00 
 108    6:10   0.07   48.4    93    6.0   301    12.5   1009.8    0.00 
 108    6:20   0.08   48.9    93   11.4   312    14.5   1010.2    0.00 
 108    6:30   0.11   49.3    93   10.8   313    15.8   1009.8    0.00 
 108    6:40   0.14   49.6    92   11.0   312    14.8   1009.8    0.00 
 108    6:50   0.17   49.9    92   10.6   309    15.5   1009.8    0.00 
 108    7:00   0.20   50.4    92   11.4   303    15.6   1010.2    0.00 
 108    7:10   0.23   50.6    91   11.4   303    15.7   1010.2    0.00 
 108    7:20   0.26   50.7    90   12.0   301    15.4   1010.2    0.00 
 108    7:30   0.29   51.2    90   11.5   295    15.6   1010.2    0.00 
 108    7:40   0.33   51.4    89   11.7   299    16.3   1010.2    0.00 
 108    7:50   0.36   51.6    88   12.2   304    16.7   1010.2    0.00 
 108    8:00   0.39   52.1    87   11.3   304    16.4   1010.5    0.00 
 108    8:10   0.42   52.1    87   12.0   305    16.5   1010.5    0.00 
 108    8:20   0.46   52.3    86   12.2   313    16.1   1010.5    0.00 
 108    8:30   0.49   52.1    86   14.1   311    17.4   1010.5    0.00 
 108    8:40   0.52   52.7    85   12.6   309    17.2   1010.5    0.00 
 108    8:50   0.53   52.9    84   13.6   304    16.8   1010.5    0.00 
 108    9:00   0.58   53.2    84   13.0   308    16.8   1010.5    0.00 
 108    9:10   0.59   53.2    83   13.5   312    17.8   1010.5    0.00 
 108    9:20   0.58   53.2    83   12.8   309    16.6   1010.5    0.00 
 108    9:30   0.66   53.7    83   11.7   303    15.0   1010.5    0.00 
 108    9:40   0.64   53.4    83   13.0   300    16.4   1010.8    0.00 
 108    9:50   0.69   53.2    84   12.3   300    15.2   1010.8    0.00 
 108   10:00   0.68   53.6    83   11.7   302    14.4   1010.8    0.00 
 108   10:10   0.75   54.4    82    9.9   299    14.0   1010.8    0.00 
 108   10:20   0.60   53.9    81   11.5   302    14.2   1010.8    0.00 
 108   10:30   0.70   53.7    82   10.9   300    14.9   1010.8    0.00 
 108   10:40   0.76   54.2    81   11.2   301    14.5   1011.2    0.00 
 108   10:50   0.80   55.3    81    9.7   291    15.1   1011.2    0.00 
 108   11:00   0.84   55.8    79   10.9   297    15.0   1011.2    0.00 
 108   11:10   0.85   54.8    80   13.2   304    16.2   1011.2    0.00 
 108   11:20   0.86   54.8    80   12.4   305    18.5   1011.2    0.00 
 108   11:30   0.80   54.9    80   13.7   303    17.5   1011.2    0.00 
 108   11:40   0.80   54.9    80   14.6   301    18.3   1010.8    0.00 
 108   11:50   0.78   54.7    80   15.0   303    19.4   1010.8    0.00 
 108   12:00   0.76   56.0    77   13.6   304    17.3   1010.8    0.00 
 108   12:10   0.86   55.2    78   16.1   302    20.8   1010.8    0.00 
 108   12:20   0.94   55.9    78   15.3   304    20.2   1010.5    0.00 
 108   12:30   0.77   56.0    77   15.1   303    19.3   1010.5    0.00 
 108   12:40   0.67   54.9    78   15.0   304    19.4   1010.5    0.00 
 108   12:50   0.87   55.7    77   14.4   306    18.5   1010.5    0.00 
 108   13:00   0.91   56.3    76   14.9   306    19.1   1010.2    0.00 
 108   13:10   100.00  99999.0   99999  99999.0   99999   99999.0   99999.0   99999.00 
 108   13:20   100.00  99999.0   99999  99999.0   99999   99999.0   99999.0   99999.00 
 108   13:30   100.00  99999.0   99999  99999.0   99999   99999.0   99999.0   99999.00 
 108   13:40   100.00  99999.0   99999  99999.0   99999   99999.0   99999.0   99999.00 
 108   13:50   100.00  99999.0   99999  99999.0   99999   99999.0   99999.0   99999.00 
 108   14:00   100.00  99999.0   99999  99999.0   99999   99999.0   99999.0   99999.00 
 108   14:10   0.69   55.9    76   17.3   303    21.5   1010.2    0.00 
 108   14:20   0.77   55.8    76   16.8   306    22.4   1010.2    0.00 
 108   14:30   0.76   56.3    75   16.6   305    23.2   1009.8    0.00 
 108   14:40   0.70   55.7    76   18.2   303    22.9   1009.8    0.00 
 108   14:50   0.23   55.7    76   18.1   306    24.0   1009.5    0.00 
 108   15:00   0.65   55.6    75   18.5   309    22.7   1009.5    0.00 
 108   15:10   0.64   55.1    76   19.0   306    23.2   1009.5    0.00 
 108   15:20   0.62   55.3    76   16.4   302    22.5   1009.5    0.00 
 108   15:30   0.59   55.0    76   17.2   303    22.3   1009.8    0.00 
 108   15:40   0.56   54.6    77   18.3   305    23.7   1009.5    0.00 
 108   15:50   0.35   54.7    77   17.4   306    22.7   1009.5    0.00 
 108   16:00   0.30   54.8    76   16.1   304    21.2   1009.5    0.00 
 108   16:10   0.47   55.0    75   15.7   312    20.5   1009.5    0.00 
 108   16:20   0.45   54.6    77   16.9   308    22.2   1009.1    0.00 
 108   16:30   0.34   54.1    78   18.3   303    24.4   1009.1    0.00 
 108   16:40   0.37   54.0    78   19.6   303    24.3   1009.1    0.00 
 108   16:50   0.34   53.5    79   20.2   304    25.7   1009.1    0.00 
 108   17:00   0.30   53.5    78   20.9   310    26.0   1009.1    0.00 
 108   17:10   0.19   53.2    79   18.5   314    26.2   1009.1    0.00 
 108   17:20   0.08   53.2    78   17.0   316    24.8   1009.1    0.00 
 108   17:30   0.18   52.8    78   20.7   316    29.1   1008.8    0.00 
 108   17:40   0.18   52.5    79   19.1   317    25.1   1008.8    0.00 
 108   17:50   0.14   52.0    80   24.4   302    31.3   1008.5    0.00 
 108   18:00   0.10   51.4    81   21.2   310    29.5   1008.5    0.00 
 108   18:10   0.09   51.4    81   19.7   317    26.6   1008.5    0.00 
 108   18:20   0.07   51.0    82   17.8   319    23.3   1008.8    0.00 
 108   18:30   0.06   50.7    83   17.9   316    24.4   1008.8    0.00 
 108   18:40   0.04   50.5    83   16.0   321    21.9   1009.1    0.00 
 108   18:50   0.02   50.3    84   15.9   318    23.2   1008.8    0.00 
 108   19:00   0.01   50.0    85   18.8   310    26.6   1008.8    0.00 
 108   19:10   0.01   49.7    86   18.9   314    25.8   1008.8    0.00 
 108   19:20   0.01   49.5    87   19.4   308    25.8   1008.8    0.00 
 108   19:30   0.01   49.3    88   20.7   304    26.3   1009.1    0.00 
 108   19:40   0.01   49.2    88   20.4   303    24.5   1009.1    0.00 
 108   19:50   0.01   49.1    88   20.5   302    25.5   1009.1    0.00 
 108   20:00   0.01   48.9    89   17.3   301    22.4   1009.1    0.00 
 108   20:10   0.01   48.7    89   17.8   299    21.7   1009.5    0.00 
 108   20:20   0.01   48.7    90   18.9   300    23.5   1009.8    0.00 
 108   20:30   0.01   48.7    89   18.8   303    23.5   1010.2    0.00 
 108   20:40   0.01   48.7    89   18.1   302    24.2   1009.8    0.00 
 108   20:50   0.01   48.6    89   18.8   304    23.3   1009.8    0.00 
 108   21:00   0.01   48.7    89   17.8   304    22.9   1010.2    0.00 
 108   21:10   0.01   48.6    90   18.1   304    23.1   1010.5    0.00 
 108   21:20   0.01   48.6    89   16.3   307    21.4   1010.5    0.00 
 108   21:30   0.01   48.7    89   17.0   308    22.5   1010.5    0.00 
 108   21:40   0.01   48.7    89   16.0   309    21.3   1010.5    0.00 
 108   21:50   0.01   48.7    89   17.0   306    21.8   1010.5    0.00 
 108   22:00   0.01   48.5    90   17.0   305    21.9   1010.5    0.00 
 108   22:10   0.01   48.5    90   16.7   306    21.1   1010.5    0.00 
 108   22:20   0.01   48.3    90   15.8   303    20.0   1010.5    0.00 
 108   22:30   0.01   48.2    91   15.0   302    20.0   1010.5    0.00 
 108   22:40   0.01   48.1    91   11.2   307    18.9   1010.5    0.00 
 108   22:50   0.01   47.9    91    9.3   303    14.8   1010.5    0.00 
 108   23:00   0.01   47.8    92    9.9   299    13.1   1010.5    0.00 
 108   23:10   0.01   47.7    92   10.3   300    13.7   1010.5    0.00 
 108   23:20   0.01   47.8    92   10.6   300    14.4   1010.5    0.00 
 108   23:30   0.01   47.9    93   10.6   299    14.5   1010.8    0.00 
 108   23:40   0.01   48.0    93   11.4   299    16.1   1010.8    0.00 
 108   23:50   0.01   48.1    94   12.7   299    17.0   1010.8    0.00 
 109    0:00   0.01   48.2    94   13.3   298    18.4   1011.2    0.00 
 109    0:10   0.01   48.2    94   12.8   300    17.8   1011.2    0.00 
 109    0:20   0.01   48.3    94   13.1   297    17.8   1011.2    0.00 
 109    0:30   0.01   48.5    94   13.6   298    17.6   1011.2    0.00 
 109    0:40   0.01   48.4    94   16.1   298    20.4   1011.2    0.00 
 109    0:50   0.01   48.3    94   16.6   300    20.8   1011.5    0.00 
 109    1:00   0.01   48.5    94   16.8   299    20.2   1011.5    0.00 

Return to Bodega Marine Reserve graphs page.


Western Regional Climate Center,wrcc@dri.edu